Hastings, United Kingdom
Current Conditions -  °F | °C
As of 6:50 PM on Thursday 30 Oct 2014 (Local Time) from EGMD Reporting Station
Clear Clear  
Wind Chill: 14°   Ceiling: Unl
Heat Index: 14°   Visibility: 6mi
Dew Point: 14°   Wind: 5mph
Humidity: 100%   Direction: 200°SSW
Pressure: 30.12"   Gusts: NA
Location:  50.86°N, 0.57°E
Report Text: EGMD 301850Z 20004KT CAVOK 14/14 Q1020
Loading
Personal Weather Stations






























Interactive Weather Map
Tropical Storm Tracking
New forecast layout! Learn more

10-Day Weather Forecast

Advertisements
Track Severe Weather on mobile